Time;durP1;ratioP1;P1;durP2;ratioP2;P2;SDS_P1;SDS_P2;PMS_P1;PMS_P2;Temp;Humidity;BMP_temperature;BMP_pressure;BME280_temperature;BME280_humidity;BME280_pressure;Samples;Min_cycle;Max_cycle;Signal;HPM_P1;HPM_P2
2023/04/23 00:01:57;;;;;;;17.63;11.45;;;;;;;15.91;82.17;100512.59;4982198;28;20054;-81
2023/04/23 00:04:27;;;;;;;18.35;11.15;;;;;;;15.85;82.68;100507.19;4975498;28;20054;-80
2023/04/23 00:06:57;;;;;;;18.25;12.13;;;;;;;15.81;83.19;100514.50;4969037;28;20046;-80
2023/04/23 00:09:30;;;;;;;16.67;10.77;;;;;;;15.68;84.13;100513.47;4975254;28;20394;-80
2023/04/23 00:12:00;;;;;;;17.23;10.85;;;;;;;15.63;84.77;100513.59;4957542;28;20046;-80
2023/04/23 00:14:28;;;;;;;18.63;11.27;;;;;;;15.61;85.39;100512.28;4975460;28;20043;-80
2023/04/23 00:16:56;;;;;;;20.58;11.63;;;;;;;15.53;86.11;100506.41;4987679;28;20594;-80
2023/04/23 00:19:24;;;;;;;17.90;11.43;;;;;;;15.52;85.26;100507.53;4974667;28;20057;-80
2023/04/23 00:21:52;;;;;;;17.80;11.73;;;;;;;15.50;85.57;100498.75;4989130;28;20085;-80
2023/04/23 00:24:20;;;;;;;21.15;11.45;;;;;;;15.62;85.89;100511.97;4994497;28;20046;-80
2023/04/23 00:26:48;;;;;;;19.52;12.35;;;;;;;15.50;86.42;100509.78;4993784;28;20054;-80
2023/04/23 00:29:16;;;;;;;22.88;12.77;;;;;;;15.53;86.31;100500.06;4994077;28;20397;-80
2023/04/23 00:31:44;;;;;;;20.17;12.02;;;;;;;15.50;86.69;100497.94;4973177;28;20056;-80
2023/04/23 00:34:12;;;;;;;20.13;12.00;;;;;;;15.57;86.69;100498.31;4974792;28;20081;-80
2023/04/23 00:36:40;;;;;;;20.05;12.00;;;;;;;15.52;87.46;100495.69;4974611;28;20062;-80
2023/04/23 00:39:10;;;;;;;20.70;12.77;;;;;;;15.41;87.62;100495.13;4974612;28;20050;-80
2023/04/23 00:41:38;;;;;;;19.83;12.63;;;;;;;15.39;88.61;100491.88;4974451;28;20054;-80
2023/04/23 00:44:07;;;;;;;23.55;11.32;;;;;;;15.35;89.05;100496.41;4975793;28;20043;-82
2023/04/23 00:46:36;;;;;;;21.83;12.70;;;;;;;15.36;89.00;100493.31;4973007;28;20047;-80
2023/04/23 00:49:04;;;;;;;20.00;12.65;;;;;;;15.38;88.96;100490.22;4974505;28;20042;-80
2023/04/23 00:51:32;;;;;;;25.65;12.98;;;;;;;15.39;88.56;100481.66;4984027;28;20066;-80
2023/04/23 00:54:00;;;;;;;21.13;13.73;;;;;;;15.38;89.00;100490.22;4957102;28;20046;-80
2023/04/23 00:56:28;;;;;;;23.35;13.70;;;;;;;15.31;89.24;100488.72;4974364;28;20053;-80
2023/04/23 00:58:56;;;;;;;22.90;12.95;;;;;;;15.40;89.25;100493.50;4974288;28;20073;-80
2023/04/23 01:01:24;;;;;;;23.48;14.02;;;;;;;15.41;88.69;100486.84;4978714;28;20046;-80
2023/04/23 01:03:52;;;;;;;26.08;14.68;;;;;;;15.36;89.71;100487.00;4993567;28;20057;-80
2023/04/23 01:06:23;;;;;;;26.02;14.32;;;;;;;15.38;89.15;100496.56;4992724;28;20050;-80
2023/04/23 01:08:51;;;;;;;27.30;14.77;;;;;;;15.35;89.14;100490.88;4993662;28;20077;-80
2023/04/23 01:11:20;;;;;;;23.88;14.18;;;;;;;15.28;88.50;100489.38;4993483;28;20390;-80
2023/04/23 01:13:48;;;;;;;26.02;14.38;;;;;;;15.30;88.76;100481.59;4976429;28;20042;-80
2023/04/23 01:16:16;;;;;;;26.95;15.43;;;;;;;15.38;88.53;100479.22;4993519;28;20053;-80
2023/04/23 01:18:44;;;;;;;24.73;14.60;;;;;;;15.31;88.26;100485.97;4976149;28;20061;-80
2023/04/23 01:21:14;;;;;;;24.98;14.43;;;;;;;15.32;88.14;100487.59;4993251;28;20051;-80
2023/04/23 01:23:42;;;;;;;26.52;14.85;;;;;;;15.27;88.42;100479.50;4976182;28;20516;-80
2023/04/23 01:26:10;;;;;;;23.88;14.40;;;;;;;15.27;88.53;100485.00;4993241;28;20393;-80
2023/04/23 01:28:39;;;;;;;29.23;15.10;;;;;;;15.21;89.08;100475.22;4993358;28;20053;-80
2023/04/23 01:31:06;;;;;;;26.13;14.77;;;;;;;15.13;89.45;100478.72;4975898;28;20133;-80
2023/04/23 01:33:35;;;;;;;26.30;14.45;;;;;;;14.98;90.31;100472.47;4975909;28;20485;-80
2023/04/23 01:36:03;;;;;;;25.77;14.93;;;;;;;15.04;90.62;100476.72;4993080;28;20485;-80
2023/04/23 01:38:33;;;;;;;27.35;15.43;;;;;;;15.02;90.46;100478.97;4993133;28;20053;-80
2023/04/23 01:41:01;;;;;;;27.45;16.20;;;;;;;14.94;90.89;100471.47;4993134;28;20784;-80
2023/04/23 01:43:30;;;;;;;27.38;15.90;;;;;;;14.93;91.45;100480.84;4975812;28;20065;-80
2023/04/23 01:45:58;;;;;;;27.30;15.68;;;;;;;14.91;91.59;100483.13;4992944;28;20061;-80
2023/04/23 01:48:27;;;;;;;26.92;15.75;;;;;;;14.90;91.83;100486.97;4975954;28;20061;-80
2023/04/23 01:50:55;;;;;;;27.23;15.93;;;;;;;14.89;92.61;100485.34;4992797;28;20043;-80
2023/04/23 01:53:23;;;;;;;29.80;16.70;;;;;;;14.84;91.92;100480.78;4992835;28;20062;-80
2023/04/23 01:55:52;;;;;;;26.13;15.25;;;;;;;14.81;92.29;100483.34;4992737;28;20038;-80
2023/04/23 01:58:22;;;;;;;26.42;16.20;;;;;;;14.80;92.44;100481.72;4975464;28;20493;-80
2023/04/23 02:00:51;;;;;;;27.38;15.85;;;;;;;14.77;93.05;100483.97;4992721;28;20054;-80
2023/04/23 02:03:19;;;;;;;28.35;16.73;;;;;;;14.82;93.66;100484.97;4977336;28;20051;-81
2023/04/23 02:05:47;;;;;;;26.98;16.23;;;;;;;14.83;93.74;100484.66;4989726;28;20042;-80
2023/04/23 02:08:15;;;;;;;23.58;15.30;;;;;;;14.84;93.16;100493.72;4964395;28;20045;-80
2023/04/23 02:10:43;;;;;;;27.70;15.73;;;;;;;14.85;92.91;100490.69;4990331;28;20046;-80
2023/04/23 02:13:11;;;;;;;27.30;15.68;;;;;;;14.84;93.04;100485.47;4955790;28;20057;-80
2023/04/23 02:15:39;;;;;;;30.15;15.57;;;;;;;14.85;93.42;100478.81;4973261;28;20046;-80
2023/04/23 02:18:08;;;;;;;27.75;16.23;;;;;;;14.85;93.16;100485.16;4966056;28;20057;-80
2023/04/23 02:20:39;;;;;;;27.38;15.70;;;;;;;15.01;91.82;100480.09;4968719;28;20073;-80
2023/04/23 02:23:07;;;;;;;27.00;16.33;;;;;;;14.89;92.41;100477.91;4975275;28;20394;-80
2023/04/23 02:25:38;;;;;;;30.58;16.23;;;;;;;14.95;91.98;100473.09;4992344;28;20061;-80
2023/04/23 02:28:07;;;;;;;27.63;16.25;;;;;;;14.96;91.56;100480.22;4974116;28;20050;-80
2023/04/23 02:30:35;;;;;;;32.75;18.67;;;;;;;14.96;91.51;100471.94;4992142;28;20146;-80
2023/04/23 02:33:03;;;;;;;29.05;16.98;;;;;;;15.01;92.07;100471.84;4992336;28;20043;-80
2023/04/23 02:35:30;;;;;;;28.05;15.25;;;;;;;14.95;91.79;100473.09;4975032;28;20417;-80
2023/04/23 02:37:58;;;;;;;26.80;15.43;;;;;;;14.95;91.47;100467.56;4992250;28;20533;-80
2023/04/23 02:40:26;;;;;;;28.88;16.55;;;;;;;15.03;90.98;100479.78;4992084;28;20550;-80
2023/04/23 02:42:54;;;;;;;24.45;15.20;;;;;;;15.05;90.14;100472.84;4992252;28;20054;-80
2023/04/23 02:45:22;;;;;;;28.00;15.43;;;;;;;15.08;90.78;100470.56;4992186;28;20046;-80
2023/04/23 02:47:52;;;;;;;25.58;15.65;;;;;;;14.97;91.29;100462.59;4992101;28;20047;-80
2023/04/23 02:50:20;;;;;;;27.98;16.30;;;;;;;14.95;92.33;100464.81;4971430;28;20428;-80
2023/04/23 02:52:48;;;;;;;27.50;15.80;;;;;;;14.89;91.98;100460.56;4972792;28;20043;-80
2023/04/23 02:55:16;;;;;;;27.00;15.50;;;;;;;14.82;92.72;100468.44;4971481;28;20050;-80
2023/04/23 02:57:44;;;;;;;30.13;16.65;;;;;;;14.85;92.59;100459.53;4972845;28;20394;-80
2023/04/23 03:00:14;;;;;;;26.17;15.05;;;;;;;14.87;91.64;100460.06;4972769;28;20069;-80
2023/04/23 03:02:43;;;;;;;27.95;15.73;;;;;;;14.89;91.80;100455.03;4971671;28;20046;-80
2023/04/23 03:05:11;;;;;;;31.23;16.52;;;;;;;14.86;92.53;100461.19;4971617;28;20371;-80
2023/04/23 03:07:40;;;;;;;28.40;16.08;;;;;;;14.84;91.93;100466.19;4970928;28;20062;-81
2023/04/23 03:10:08;;;;;;;26.48;15.95;;;;;;;14.83;91.51;100459.88;4972583;28;20054;-80
2023/04/23 03:12:36;;;;;;;28.52;16.17;;;;;;;14.78;93.34;100469.06;4971485;28;20586;-80
2023/04/23 03:15:05;;;;;;;29.05;16.02;;;;;;;14.77;92.05;100467.44;4971314;28;20055;-80
2023/04/23 03:17:35;;;;;;;29.92;15.10;;;;;;;14.70;93.22;100467.03;4971203;28;20050;-81
2023/04/23 03:20:03;;;;;;;27.77;15.77;;;;;;;14.78;93.03;100463.53;4944334;29;20525;-80
2023/04/23 03:22:31;;;;;;;27.73;16.20;;;;;;;14.71;93.21;100457.63;4956135;28;20058;-80
2023/04/23 03:24:59;;;;;;;29.92;16.05;;;;;;;14.67;93.01;100461.31;4955661;28;20048;-80
2023/04/23 03:27:27;;;;;;;29.58;15.63;;;;;;;14.64;93.72;100457.25;4955965;28;20047;-80
2023/04/23 03:29:55;;;;;;;29.33;15.98;;;;;;;14.64;93.87;100463.59;4974677;28;20051;-80
2023/04/23 03:32:23;;;;;;;32.15;17.35;;;;;;;14.57;94.48;100457.66;4968414;28;20066;-80
2023/04/23 03:34:51;;;;;;;27.88;16.05;;;;;;;14.51;94.76;100453.41;4966558;28;20490;-80
2023/04/23 03:37:21;;;;;;;25.95;15.55;;;;;;;14.48;94.41;100462.28;4974585;28;20051;-81
2023/04/23 03:39:50;;;;;;;27.55;15.75;;;;;;;14.40;94.53;100460.25;4974465;28;20066;-81
2023/04/23 03:42:18;;;;;;;29.17;15.85;;;;;;;14.38;94.81;100472.38;4974463;28;20069;-80
2023/04/23 03:44:47;;;;;;;31.40;17.20;;;;;;;14.43;95.09;100468.72;4974590;28;20042;-80
2023/04/23 03:47:15;;;;;;;31.60;16.38;;;;;;;14.29;96.10;100460.50;4974520;28;20043;-80
2023/04/23 03:49:44;;;;;;;29.17;16.50;;;;;;;14.24;96.57;100472.41;4974387;28;20402;-80
2023/04/23 03:52:12;;;;;;;31.55;16.50;;;;;;;14.28;95.72;100471.81;4958320;28;20086;-80
2023/04/23 03:54:40;;;;;;;29.38;17.13;;;;;;;14.28;95.75;100469.88;4958380;28;20054;-80
2023/04/23 03:57:12;;;;;;;29.95;16.35;;;;;;;14.28;95.70;100469.88;4958260;28;20660;-81
2023/04/23 04:00:12;;;;;;;27.60;16.23;;;;;;;14.29;96.51;100463.25;4945215;28;20051;-80
2023/04/23 04:02:41;;;;;;;29.17;16.30;;;;;;;14.31;96.19;100465.66;4958164;28;20050;-81
2023/04/23 04:05:09;;;;;;;28.05;16.38;;;;;;;14.29;96.25;100454.16;4958220;28;20058;-80
2023/04/23 04:07:39;;;;;;;29.15;15.73;;;;;;;14.27;96.54;100461.94;4975415;28;20043;-81
2023/04/23 04:10:08;;;;;;;29.50;17.08;;;;;;;14.24;96.54;100453.13;4975357;28;20055;-81
2023/04/23 04:12:36;;;;;;;31.60;17.05;;;;;;;14.15;96.46;100457.75;4958038;28;20490;-81
2023/04/23 04:15:04;;;;;;;27.00;15.60;;;;;;;14.17;97.15;100465.72;4974174;28;20042;-81
2023/04/23 04:17:32;;;;;;;29.27;16.88;;;;;;;14.21;96.80;100464.78;4975184;28;20080;-80
2023/04/23 04:20:00;;;;;;;27.33;16.48;;;;;;;14.32;95.93;100472.84;4957995;28;20047;-80
2023/04/23 04:22:30;;;;;;;29.15;15.05;;;;;;;14.42;96.08;100471.78;4975121;28;20053;-80
2023/04/23 04:24:58;;;;;;;28.67;15.48;;;;;;;14.38;96.59;100472.38;4957933;28;20047;-80
2023/04/23 04:27:26;;;;;;;31.15;16.77;;;;;;;14.40;96.52;100465.75;4974974;28;20046;-81
2023/04/23 04:29:55;;;;;;;28.52;15.98;;;;;;;14.45;95.63;100471.16;4974900;28;20074;-81
2023/04/23 04:32:23;;;;;;;30.90;16.10;;;;;;;14.49;95.88;100466.66;4974988;28;20042;-81
2023/04/23 04:34:51;;;;;;;28.40;15.88;;;;;;;14.51;95.49;100469.91;4957354;28;20047;-80
2023/04/23 04:37:20;;;;;;;26.33;15.18;;;;;;;14.48;95.52;100465.03;4955674;28;20039;-80
2023/04/23 04:39:48;;;;;;;27.27;15.02;;;;;;;14.52;95.67;100469.63;4961442;28;20050;-80
2023/04/23 04:42:16;;;;;;;27.33;15.82;;;;;;;14.49;95.87;100467.50;4974451;28;20055;-80
2023/04/23 04:44:43;;;;;;;30.33;16.55;;;;;;;14.44;95.85;100470.34;4957514;28;20078;-79
2023/04/23 04:47:12;;;;;;;25.77;14.88;;;;;;;14.43;97.78;100463.22;4960794;28;20039;-80
2023/04/23 04:49:40;;;;;;;27.77;16.52;;;;;;;14.45;95.53;100474.75;4938236;29;20055;-80
2023/04/23 04:52:08;;;;;;;26.50;15.55;;;;;;;14.52;93.96;100474.31;4982492;28;20057;-80
2023/04/23 04:54:35;;;;;;;28.38;15.95;;;;;;;14.57;93.31;100481.66;4993921;28;20050;-79
2023/04/23 04:57:03;;;;;;;28.90;15.75;;;;;;;14.77;92.77;100483.16;4993688;28;20042;-79
2023/04/23 04:59:31;;;;;;;25.30;14.35;;;;;;;14.82;92.40;100484.97;4976013;28;20054;-80
2023/04/23 05:01:59;;;;;;;25.20;15.48;;;;;;;14.88;91.90;100468.03;4993433;28;20512;-80
2023/04/23 05:04:27;;;;;;;28.23;15.65;;;;;;;14.96;90.12;100473.91;4993619;28;20482;-81
2023/04/23 05:06:55;;;;;;;29.98;16.55;;;;;;;14.94;89.95;100482.47;4975833;28;20061;-80
2023/04/23 05:09:24;;;;;;;28.27;14.95;;;;;;;15.08;90.95;100481.59;4993638;28;20041;-81
2023/04/23 05:11:52;;;;;;;25.23;14.75;;;;;;;15.43;89.95;100484.59;4994090;28;20054;-88
2023/04/23 05:14:21;;;;;;;29.23;14.77;;;;;;;15.73;87.52;100493.19;4960380;28;20057;-88
2023/04/23 05:16:48;;;;;;;27.73;15.75;;;;;;;15.89;85.62;100490.81;4976350;28;20095;-88
2023/04/23 05:19:16;;;;;;;28.77;14.73;;;;;;;16.00;85.04;100494.16;4976256;28;20050;-87
2023/04/23 05:21:44;;;;;;;28.35;15.75;;;;;;;16.16;85.72;100497.28;4961915;28;20062;-88
2023/04/23 05:24:12;;;;;;;27.20;13.80;;;;;;;16.25;84.06;100494.56;4967915;28;20054;-87
2023/04/23 05:26:40;;;;;;;26.23;14.05;;;;;;;16.23;83.82;100497.63;4942398;28;20043;-87
2023/04/23 05:29:08;;;;;;;26.42;14.00;;;;;;;16.47;83.70;100495.59;4973131;28;20050;-87
2023/04/23 05:31:37;;;;;;;23.38;13.48;;;;;;;16.70;82.01;100503.72;4979161;28;20466;-88
2023/04/23 05:34:05;;;;;;;24.25;14.23;;;;;;;16.70;79.98;100499.03;4959697;28;20046;-88
2023/04/23 05:36:33;;;;;;;22.77;13.70;;;;;;;16.73;80.75;100503.09;4942269;28;20050;-89
2023/04/23 05:39:00;;;;;;;22.90;13.68;;;;;;;16.75;80.37;100495.28;4940638;28;20051;-88
2023/04/23 05:41:29;;;;;;;25.50;13.98;;;;;;;16.63;81.04;100495.94;4955977;28;20059;-88
2023/04/23 05:43:56;;;;;;;25.30;13.55;;;;;;;16.91;80.15;100501.13;4940451;28;20524;-88
2023/04/23 05:46:25;;;;;;;24.10;14.07;;;;;;;16.99;79.67;100505.03;4971876;28;20043;-88
2023/04/23 05:48:52;;;;;;;22.05;13.13;;;;;;;17.02;78.89;100502.47;4955625;28;20050;-88
2023/04/23 05:51:21;;;;;;;21.20;13.43;;;;;;;17.09;79.28;100507.50;4953390;28;20050;-88
2023/04/23 05:53:48;;;;;;;23.85;13.95;;;;;;;17.24;78.31;100500.66;4953856;28;20062;-88
2023/04/23 05:56:16;;;;;;;24.08;13.05;;;;;;;17.29;77.92;100503.25;4959285;28;20047;-88
2023/04/23 05:58:45;;;;;;;23.45;13.40;;;;;;;17.36;78.04;100513.84;4971850;28;20055;-88
2023/04/23 06:01:13;;;;;;;24.63;12.98;;;;;;;17.32;77.51;100508.13;4939506;28;20051;-89
2023/04/23 06:03:44;;;;;;;24.30;12.93;;;;;;;17.23;78.34;100514.81;4972075;28;20050;-88
2023/04/23 06:06:12;;;;;;;23.63;13.13;;;;;;;17.28;77.39;100509.13;4952329;28;20039;-89
2023/04/23 06:08:40;;;;;;;23.70;14.63;;;;;;;17.32;76.61;100513.66;4953313;28;20047;-87
2023/04/23 06:11:08;;;;;;;24.73;13.90;;;;;;;17.39;76.47;100499.34;4968673;28;20054;-88
2023/04/23 06:13:39;;;;;;;23.08;13.63;;;;;;;17.54;76.95;100505.50;4940132;28;20078;-88
2023/04/23 06:16:10;;;;;;;26.67;14.70;;;;;;;17.59;75.29;100508.06;4953377;28;20505;-88
2023/04/23 06:18:38;;;;;;;24.83;14.18;;;;;;;17.67;75.51;100506.44;4954215;29;20043;-88
2023/04/23 06:21:06;;;;;;;23.85;14.10;;;;;;;17.56;74.94;100508.75;4971920;28;20050;-88
2023/04/23 06:23:34;;;;;;;24.50;13.35;;;;;;;17.73;74.69;100516.19;4956089;28;20078;-88
2023/04/23 06:26:03;;;;;;;23.02;13.32;;;;;;;17.62;73.96;100507.44;4972206;28;20501;-88
2023/04/23 06:28:31;;;;;;;23.63;14.18;;;;;;;17.35;74.84;100511.41;4973490;28;20046;-88
2023/04/23 06:31:19;;;;;;;23.75;13.32;;;;;;;17.39;75.79;100515.94;4943470;28;20532;-88
2023/04/23 06:33:47;;;;;;;20.83;12.75;;;;;;;17.30;75.44;100510.41;4973379;28;20049;-88
2023/04/23 06:36:15;;;;;;;22.35;12.85;;;;;;;17.49;74.41;100508.44;4972488;28;20036;-88
2023/04/23 06:38:43;;;;;;;25.52;14.02;;;;;;;17.46;74.56;100513.47;4971824;28;20043;-88
2023/04/23 06:41:14;;;;;;;23.50;14.02;;;;;;;17.78;73.87;100517.97;4971813;28;20497;-88
2023/04/23 06:43:42;;;;;;;22.58;13.75;;;;;;;17.88;74.06;100509.28;4954999;28;20525;-85
2023/04/23 06:46:21;;;;;;;21.02;12.75;;;;;;;17.86;73.85;100514.34;4964194;28;20043;-86
2023/04/23 06:48:49;;;;;;;21.80;14.00;;;;;;;17.90;74.00;100520.84;4972115;28;20505;-85
2023/04/23 06:51:17;;;;;;;22.38;13.15;;;;;;;17.97;73.74;100523.91;4984231;28;20050;-85
2023/04/23 06:53:46;;;;;;;23.20;13.25;;;;;;;18.03;73.54;100526.50;4992437;28;20085;-85
2023/04/23 06:56:13;;;;;;;24.23;13.15;;;;;;;18.18;73.39;100525.97;4991105;28;20486;-85
2023/04/23 06:58:41;;;;;;;21.48;13.23;;;;;;;18.08;73.41;100515.28;4990767;28;20053;-85
2023/04/23 07:01:16;;;;;;;20.85;13.30;;;;;;;18.27;nan;100521.19;4978099;28;20046;-86
2023/04/23 07:03:47;;;;;;;24.08;13.00;;;;;;;18.39;71.84;100514.94;4978115;28;20062;-86
2023/04/23 07:06:16;;;;;;;20.60;11.35;;;;;;;18.49;71.65;100527.59;4991590;28;20046;-86
2023/04/23 07:08:44;;;;;;;22.15;12.60;;;;;;;18.37;70.58;100527.50;4959235;28;20035;-86
2023/04/23 07:11:12;;;;;;;25.02;13.77;;;;;;;18.33;72.34;100521.81;4976407;28;20417;-86
2023/04/23 07:13:39;;;;;;;22.40;13.00;;;;;;;18.10;72.32;100530.38;4974990;28;20397;-85
2023/04/23 07:16:08;;;;;;;22.33;12.65;;;;;;;18.27;72.01;100521.19;4976426;28;20047;-86
2023/04/23 07:18:36;;;;;;;21.77;12.20;;;;;;;18.21;71.92;100519.78;4977628;28;20414;-86
2023/04/23 07:21:04;;;;;;;22.05;13.23;;;;;;;18.33;72.43;100527.34;4995546;28;20045;-85
2023/04/23 07:23:31;;;;;;;22.73;13.18;;;;;;;18.38;71.97;100529.13;4977278;28;20065;-86
2023/04/23 07:25:59;;;;;;;21.73;14.15;;;;;;;18.46;73.20;100519.13;4981596;28;20038;-86
2023/04/23 07:28:27;;;;;;;23.38;14.40;;;;;;;18.47;72.64;100527.13;4995605;28;20065;-86
2023/04/23 07:30:55;;;;;;;24.92;13.57;;;;;;;18.47;71.82;100520.78;4995000;28;20049;-85
2023/04/23 07:33:24;;;;;;;23.70;14.10;;;;;;;18.67;71.15;100527.47;4995654;28;20408;-85
2023/04/23 07:35:52;;;;;;;26.25;14.23;;;;;;;18.67;72.34;100522.75;4995411;28;20042;-85
2023/04/23 07:38:20;;;;;;;23.88;13.43;;;;;;;18.59;71.17;100517.25;4989900;28;20039;-86
2023/04/23 07:40:48;;;;;;;24.08;14.10;;;;;;;18.83;70.16;100521.34;4985775;28;20053;-88
2023/04/23 07:43:16;;;;;;;24.50;14.13;;;;;;;18.84;69.26;100526.53;4981303;28;20062;-87
2023/04/23 07:45:43;;;;;;;22.65;12.57;;;;;;;18.92;69.54;100516.53;4974181;28;20506;-88
2023/04/23 07:48:11;;;;;;;23.00;13.77;;;;;;;18.75;69.91;100515.53;4960092;28;20111;-87
2023/04/23 07:50:40;;;;;;;26.75;14.10;;;;;;;18.92;71.73;100514.56;4958364;28;20506;-87
2023/04/23 07:53:07;;;;;;;23.85;13.75;;;;;;;19.11;70.52;100520.81;4973881;28;20077;-88
2023/04/23 07:55:36;;;;;;;26.15;15.00;;;;;;;19.14;69.37;100525.66;4993873;28;20406;-87
2023/04/23 07:58:04;;;;;;;22.83;13.25;;;;;;;19.15;70.27;100519.78;4995538;28;20053;-89
2023/04/23 08:00:32;;;;;;;24.55;13.98;;;;;;;19.24;68.86;100525.25;4978243;28;20485;-82
2023/04/23 08:03:00;;;;;;;25.70;14.98;;;;;;;19.43;69.36;100523.94;4995026;28;20046;-86
2023/04/23 08:05:28;;;;;;;24.08;14.00;;;;;;;19.45;70.65;100516.88;4972677;28;20494;-87
2023/04/23 08:07:56;;;;;;;27.88;15.40;;;;;;;19.42;70.66;100520.38;4986482;28;20037;-87
2023/04/23 08:10:25;;;;;;;24.30;13.60;;;;;;;19.56;69.36;100519.25;4969692;28;20054;-87
2023/04/23 08:12:53;;;;;;;23.88;14.65;;;;;;;19.46;68.67;100520.50;4977339;28;20065;-87
2023/04/23 08:15:21;;;;;;;21.17;13.10;;;;;;;19.73;67.67;100527.38;4976307;28;20042;-87
2023/04/23 08:17:49;;;;;;;24.88;14.18;;;;;;;19.53;67.02;100522.69;4994713;28;20042;-88
2023/04/23 08:20:17;;;;;;;23.77;13.20;;;;;;;19.66;67.29;100526.31;4977097;28;20046;-87
2023/04/23 08:22:45;;;;;;;25.77;14.00;;;;;;;19.45;66.29;100522.44;4994596;28;20051;-87
2023/04/23 08:25:13;;;;;;;22.67;12.52;;;;;;;19.68;66.78;100512.91;4994616;28;20046;-87
2023/04/23 08:27:41;;;;;;;21.85;12.60;;;;;;;19.93;64.70;100522.06;4994506;28;20049;-87
2023/04/23 08:30:09;;;;;;;22.20;12.52;;;;;;;20.00;65.54;100521.53;4977033;28;20050;-87
2023/04/23 08:32:40;;;;;;;23.40;13.88;;;;;;;19.50;65.77;100513.09;4976858;28;20047;-86
2023/04/23 08:35:08;;;;;;;21.55;12.77;;;;;;;19.91;65.32;100509.69;4994494;28;20057;-87
2023/04/23 08:37:38;;;;;;;21.00;12.88;;;;;;;20.19;64.72;100512.63;4977495;28;20054;-87
2023/04/23 08:40:07;;;;;;;22.83;13.88;;;;;;;20.20;65.37;100513.44;4975318;28;20053;-87
2023/04/23 08:42:51;;;;;;;25.20;14.80;;;;;;;20.39;65.42;100512.84;4972503;28;20054;-87
2023/04/23 08:45:20;;;;;;;22.75;13.65;;;;;;;20.41;67.50;100519.69;4975935;28;20050;-87
2023/04/23 08:47:48;;;;;;;21.55;12.40;;;;;;;20.59;63.30;100516.66;4975840;28;20046;-87
2023/04/23 08:50:18;;;;;;;19.77;12.07;;;;;;;20.44;63.01;100506.25;4944043;28;20049;-87
2023/04/23 08:52:51;;;;;;;20.80;12.38;;;;;;;20.48;60.50;100516.31;4959141;28;20046;-87
2023/04/23 08:55:20;;;;;;;18.38;11.80;;;;;;;20.56;60.89;100519.34;4962326;28;20046;-86
2023/04/23 08:57:49;;;;;;;20.73;12.15;;;;;;;20.45;61.11;100508.69;4992395;28;20405;-88
2023/04/23 09:00:19;;;;;;;21.05;11.63;;;;;;;20.51;60.33;100509.25;4982052;28;20042;-86
2023/04/23 09:02:48;;;;;;;22.75;12.13;;;;;;;20.60;61.60;100504.38;4976421;28;20058;-87
2023/04/23 09:05:17;;;;;;;19.42;11.95;;;;;;;20.80;60.29;100510.09;4992923;28;20049;-88
2023/04/23 09:07:45;;;;;;;18.80;11.18;;;;;;;20.88;59.80;100503.63;4976586;28;20050;-88
2023/04/23 09:10:13;;;;;;;20.10;11.40;;;;;;;21.12;57.92;100510.25;4960659;28;20053;-86
2023/04/23 09:12:46;;;;;;;19.85;11.25;;;;;;;21.34;57.91;100510.84;4975933;28;20057;-88
2023/04/23 09:15:16;;;;;;;17.40;10.93;;;;;;;21.48;57.46;100507.66;4972277;28;20676;-88
2023/04/23 09:17:46;;;;;;;17.70;10.63;;;;;;;21.45;57.16;100511.97;4961195;28;20493;-88
2023/04/23 09:20:14;;;;;;;16.13;9.93;;;;;;;21.42;56.41;100501.56;4964570;28;20519;-87
2023/04/23 09:22:46;;;;;;;18.48;11.52;;;;;;;21.33;56.38;100501.72;4974964;28;20062;-87
2023/04/23 09:25:18;;;;;;;20.77;11.32;;;;;;;21.23;56.94;100498.63;4976006;28;20050;-88
2023/04/23 09:27:49;;;;;;;19.65;11.30;;;;;;;21.16;55.83;100490.91;4975874;28;20045;-88
2023/04/23 09:30:18;;;;;;;16.10;9.85;;;;;;;21.29;54.21;100488.84;4975968;28;20069;-87
2023/04/23 09:32:46;;;;;;;20.80;11.38;;;;;;;21.39;55.43;100482.78;4975672;28;20073;-87
2023/04/23 09:35:18;;;;;;;18.83;10.95;;;;;;;21.43;55.24;100478.13;4973685;28;20046;-87
2023/04/23 09:37:49;;;;;;;19.58;11.00;;;;;;;21.54;57.11;100488.69;4973341;28;20505;-87
2023/04/23 09:40:18;;;;;;;16.63;10.73;;;;;;;21.52;55.67;100479.91;4959389;28;20493;-86
2023/04/23 09:42:48;;;;;;;18.83;10.82;;;;;;;21.61;55.86;100477.78;4992875;28;20053;-86
2023/04/23 09:45:16;;;;;;;16.17;10.23;;;;;;;21.72;56.19;100481.69;4964764;28;20549;-87
2023/04/23 09:47:55;;;;;;;15.93;10.13;;;;;;;21.80;55.80;100473.50;4992157;28;20405;-86
2023/04/23 09:50:38;;;;;;;13.85;9.80;;;;;;;21.66;53.14;100480.28;4953125;28;20050;-87
2023/04/23 09:53:07;;;;;;;14.85;9.55;;;;;;;21.83;54.48;100465.22;4988850;28;20054;-81
2023/04/23 09:55:41;;;;;;;15.73;9.60;;;;;;;21.77;55.23;100466.66;4991564;28;20049;-85
2023/04/23 09:58:14;;;;;;;15.95;9.82;;;;;;;22.08;54.26;100467.81;4987318;28;20046;-86
2023/04/23 10:00:42;;;;;;;16.35;9.60;;;;;;;22.19;53.42;100481.19;4992809;28;20050;-87
2023/04/23 10:03:10;;;;;;;16.75;10.32;;;;;;;22.18;53.44;100472.00;4992408;28;20053;-85
2023/04/23 10:05:41;;;;;;;17.17;9.63;;;;;;;22.15;50.66;100470.75;4973290;28;20043;-86
2023/04/23 10:08:14;;;;;;;16.10;9.35;;;;;;;22.18;51.96;100483.16;4973387;28;20039;-87
2023/04/23 10:10:44;;;;;;;13.80;9.10;;;;;;;22.27;52.51;100481.00;4989041;28;20512;-87
2023/04/23 10:13:17;;;;;;;12.80;8.00;;;;;;;22.26;51.30;100472.97;4953070;28;20049;-86
2023/04/23 10:15:47;;;;;;;14.75;8.07;;;;;;;22.34;50.42;100476.75;4970839;28;20047;-87
2023/04/23 10:18:16;;;;;;;13.40;8.88;;;;;;;22.41;52.24;100474.13;4991610;28;20046;-87
2023/04/23 10:20:44;;;;;;;15.93;8.80;;;;;;;22.58;51.70;100467.34;4992284;28;20038;-86
2023/04/23 10:23:13;;;;;;;13.40;8.85;;;;;;;22.64;51.92;100471.44;4992404;28;20054;-86
2023/04/23 10:25:42;;;;;;;14.77;9.15;;;;;;;22.57;52.53;100468.50;4956712;28;20057;-86
2023/04/23 10:28:11;;;;;;;16.27;9.38;;;;;;;22.64;51.80;100465.88;4992703;28;20050;-87
2023/04/23 10:30:41;;;;;;;19.65;9.40;;;;;;;22.62;49.36;100467.44;4991066;28;20057;-86
2023/04/23 10:33:11;;;;;;;14.48;9.07;;;;;;;22.75;52.06;100471.69;4995649;28;20081;-86
2023/04/23 10:35:56;;;;;;;13.88;8.82;;;;;;;22.86;49.38;100465.53;4980391;28;20042;-87
2023/04/23 10:38:27;;;;;;;14.73;9.30;;;;;;;22.42;49.87;100465.41;4998615;28;20053;-87
2023/04/23 10:40:57;;;;;;;17.83;10.13;;;;;;;22.61;50.28;100463.00;4980742;28;20038;-87
2023/04/23 10:43:25;;;;;;;15.73;8.88;;;;;;;22.52;50.09;100457.66;4998446;28;20835;-87
2023/04/23 10:45:53;;;;;;;14.48;8.68;;;;;;;22.80;50.88;100468.63;4965041;28;20062;-87
2023/04/23 10:48:21;;;;;;;12.98;8.35;;;;;;;23.05;48.77;100459.13;4962051;28;20053;-86
2023/04/23 10:50:58;;;;;;;14.73;9.50;;;;;;;23.14;48.83;100470.88;4958394;28;20055;-87
2023/04/23 10:53:46;;;;;;;14.98;9.80;;;;;;;22.88;49.62;100457.59;4960298;28;20050;-86
2023/04/23 10:56:14;;;;;;;13.05;9.15;;;;;;;22.89;50.24;100448.88;4977928;28;20061;-87
2023/04/23 10:58:50;;;;;;;14.32;9.15;;;;;;;23.10;49.93;100447.66;4970449;28;20047;-87
2023/04/23 11:01:20;;;;;;;13.25;8.43;;;;;;;23.31;48.58;100458.44;4962165;28;20047;-87
2023/04/23 11:03:51;;;;;;;12.05;8.68;;;;;;;23.27;47.71;100457.53;4960799;28;20062;-89
2023/04/23 11:06:48;;;;;;;14.80;9.10;;;;;;;23.01;47.16;100450.69;4959144;28;20055;-87
2023/04/23 11:09:37;;;;;;;15.80;8.73;;;;;;;23.34;48.67;100448.53;4988970;28;20047;-86
2023/04/23 11:12:09;;;;;;;12.88;8.40;;;;;;;22.88;47.56;100438.06;4977098;28;20055;-86
2023/04/23 11:14:47;;;;;;;12.82;7.22;;;;;;;23.40;47.87;100443.47;4963941;28;20047;-87
2023/04/23 11:17:17;;;;;;;11.48;7.45;;;;;;;23.43;46.38;100445.50;4969710;28;20043;-90
2023/04/23 11:20:12;;;;;;;10.20;6.68;;;;;;;23.79;45.57;100426.53;4978245;28;20057;-87